Hlavní strana
METAR-TAF:

METAR-TAF

Letiště :

Stockholm-Arlanda, Švédsko

zeměpisná šířka: 59-39N, zeměpisná délka: 017-57E, výška: 38 m

Aktuální stav počasí

Zpráva byla vytvořena před 30 minutami, v 04:20 UTC
Západojihozápadní vítr 9 kt
Teplota 6°C
Vlhkost vzduchu 87%
Tlak 1036 hPa
Viditelnost 10 km a více
Oblačno až skoro zataženo ve výšce 1900 ft

METAR: ESSA 170420Z 24009KT 9999 BKN019 06/04 Q1036 R01L/0///95 R08/0///95 R01R/0///95 NOSIG

Čas: 05:50 (04:50 UTC)

Předpověď počasí

Zpráva byla vytvořena před 5 hodinami a 20 minutami, v 23:30 UTC
Předpověď platná od 17 v 00 UTC do 17 v 24 UTC
Západojihozápadní vítr 12 kt
Viditelnost 10 km a více
Oblačno až skoro zataženo ve výšce 2000 ft
Pravděpodobnost 40%
od 17 v 00 UTC do 17 v 06 UTC
Oblačno až skoro zataženo ve výšce 1300 ft

TAF: ESSA 162330Z 1700/1724 24012KT 9999 BKN020 PROB40 1700/1706 BKN013

Stav a předpovědi počasí z více než 4 000 letišť (zprávy METAR a TAF).

Červené a žluté tečky na mapě představují dostupné meteorologické stanice.

Když kurzor umístíte na tečku, zobrazí se název stanice.

Pak kliknutím zobrazíte stav a předpověď počasí.

Chcete-li změnit mapu, kliknutím na zelené tlačítko se znaménkem +mapu přiblížíte, kliknutím na zelené tlačítko se znaménkem – mapu oddálíte a kliknutím na zelené šipky přejdete na sousední mapy.


METAR-TAF: